Time;durP1;ratioP1;P1;durP2;ratioP2;P2;SDS_P1;SDS_P2;PMS_P1;PMS_P2;Temp;Humidity;BMP_temperature;BMP_pressure;BME280_temperature;BME280_humidity;BME280_pressure;Samples;Min_cycle;Max_cycle;Signal;HPM_P1;HPM_P2
2023/08/02 00:00:00;;;;;;;26.67;15.73;;;16.20;99.90;;;;;;5072092;28;20238;-87
2023/08/02 00:02:30;;;;;;;25.58;15.13;;;16.20;99.90;;;;;;5080715;28;20196;-86
2023/08/02 00:05:03;;;;;;;24.10;14.23;;;16.20;99.90;;;;;;5070666;28;20307;-86
2023/08/02 00:07:34;;;;;;;21.17;13.02;;;16.20;99.90;;;;;;5071060;28;20601;-87
2023/08/02 00:10:05;;;;;;;21.45;12.73;;;16.30;99.90;;;;;;5080042;28;20655;-87
2023/08/02 00:12:35;;;;;;;20.73;12.70;;;16.40;99.90;;;;;;5091050;28;20199;-86
2023/08/02 00:15:07;;;;;;;21.60;13.45;;;16.50;99.90;;;;;;5091095;28;20716;-87
2023/08/02 00:17:37;;;;;;;20.52;12.07;;;16.60;99.90;;;;;;5091300;28;20199;-89
2023/08/02 00:20:13;;;;;;;20.08;12.35;;;16.80;99.90;;;;;;5095137;28;20207;-92
2023/08/02 00:22:44;;;;;;;22.23;12.55;;;17.00;99.90;;;;;;5096299;28;20208;-91
2023/08/02 00:25:14;;;;;;;18.88;11.10;;;17.10;99.90;;;;;;5091930;28;20290;-91
2023/08/02 00:27:46;;;;;;;19.38;10.52;;;17.10;99.90;;;;;;5084732;28;20209;-90
2023/08/02 00:30:18;;;;;;;21.60;10.88;;;17.10;99.90;;;;;;5096092;28;20198;-91
2023/08/02 00:32:49;;;;;;;21.90;8.90;;;17.20;99.90;;;;;;5099349;28;20213;-93
2023/08/02 00:35:22;;;;;;;15.35;8.60;;;17.10;99.90;;;;;;5096446;28;20208;-91
2023/08/02 00:37:53;;;;;;;18.05;8.73;;;17.10;99.90;;;;;;5082208;28;20582;-91
2023/08/02 00:40:28;;;;;;;16.95;8.65;;;17.10;99.90;;;;;;5075985;28;20563;-91
2023/08/02 00:43:00;;;;;;;17.17;8.13;;;17.10;99.90;;;;;;5074944;28;20647;-91
2023/08/02 00:45:32;;;;;;;16.50;7.85;;;17.00;99.90;;;;;;5089790;28;20203;-91
2023/08/02 00:48:05;;;;;;;11.98;7.22;;;17.10;99.90;;;;;;5095868;28;20226;-91
2023/08/02 00:50:41;;;;;;;14.40;7.50;;;17.10;99.90;;;;;;5097346;28;20653;-90
2023/08/02 00:53:11;;;;;;;11.65;6.88;;;17.10;99.90;;;;;;5096755;28;20202;-90
2023/08/02 00:55:43;;;;;;;12.15;7.03;;;17.10;99.90;;;;;;5095006;28;20234;-92
2023/08/02 00:58:15;;;;;;;15.07;8.00;;;17.10;99.90;;;;;;5091577;28;20200;-91
2023/08/02 01:00:47;;;;;;;12.77;6.97;;;17.20;99.90;;;;;;5092231;28;20201;-91
2023/08/02 01:03:18;;;;;;;13.93;7.13;;;17.20;99.90;;;;;;5101247;28;20234;-90
2023/08/02 01:05:58;;;;;;;17.13;6.80;;;17.30;99.90;;;;;;5108236;28;20213;-90
2023/08/02 01:08:32;;;;;;;16.10;7.25;;;17.30;99.90;;;;;;5099595;28;20278;-90
2023/08/02 01:11:13;;;;;;;18.15;6.72;;;17.40;99.90;;;;;;5092691;28;20207;-89
2023/08/02 01:13:51;;;;;;;12.60;5.93;;;17.50;99.90;;;;;;5075341;28;20207;-86
2023/08/02 01:16:23;;;;;;;14.45;6.13;;;17.50;99.90;;;;;;5075137;28;20702;-87
2023/08/02 01:18:54;;;;;;;15.23;6.45;;;17.60;99.90;;;;;;5074804;28;20230;-87
2023/08/02 01:21:27;;;;;;;12.00;5.88;;;17.70;99.90;;;;;;5083668;28;20196;-86
2023/08/02 01:23:58;;;;;;;15.77;6.40;;;17.80;99.90;;;;;;5094599;28;20199;-86
2023/08/02 01:26:33;;;;;;;13.32;5.35;;;17.90;99.90;;;;;;5091500;28;20230;-87
2023/08/02 01:29:08;;;;;;;14.25;6.05;;;17.90;99.90;;;;;;5072695;28;20203;-86
2023/08/02 01:31:40;;;;;;;12.77;5.30;;;17.90;99.90;;;;;;5073343;28;20207;-86
2023/08/02 01:34:12;;;;;;;11.57;5.03;;;18.00;99.90;;;;;;5073649;28;20195;-88
2023/08/02 01:36:45;;;;;;;14.82;5.25;;;18.10;99.90;;;;;;5074014;28;20224;-87
2023/08/02 01:39:18;;;;;;;11.50;5.03;;;18.20;99.90;;;;;;5077512;28;20282;-86
2023/08/02 01:41:48;;;;;;;14.95;5.20;;;18.30;99.90;;;;;;5073269;28;20196;-86
2023/08/02 01:44:19;;;;;;;12.77;4.70;;;18.40;99.90;;;;;;5077221;28;20196;-86
2023/08/02 01:46:50;;;;;;;16.15;4.97;;;18.40;99.90;;;;;;5073278;28;20192;-85
2023/08/02 01:49:21;;;;;;;13.20;4.70;;;18.40;99.90;;;;;;5072193;28;20620;-86
2023/08/02 01:51:54;;;;;;;15.52;4.38;;;18.50;99.90;;;;;;5073079;28;20678;-87
2023/08/02 01:54:25;;;;;;;12.13;4.00;;;18.60;99.90;;;;;;5082494;28;20207;-87
2023/08/02 01:56:56;;;;;;;14.35;4.45;;;18.60;99.90;;;;;;5093298;28;20223;-87
2023/08/02 01:59:26;;;;;;;14.85;4.18;;;18.60;99.90;;;;;;5093528;28;20723;-86
2023/08/02 02:01:57;;;;;;;14.98;4.63;;;18.70;99.90;;;;;;5092816;28;20195;-86
2023/08/02 02:04:28;;;;;;;15.73;4.97;;;18.60;99.90;;;;;;5091452;28;20598;-84
2023/08/02 02:07:01;;;;;;;11.02;3.83;;;18.70;99.90;;;;;;5090191;28;20447;-85
2023/08/02 02:09:32;;;;;;;8.52;3.22;;;18.70;99.90;;;;;;5091478;28;20670;-85
2023/08/02 02:12:03;;;;;;;15.88;3.83;;;18.80;99.90;;;;;;5091394;28;20249;-87
2023/08/02 02:14:34;;;;;;;11.75;3.72;;;18.80;99.90;;;;;;5092518;28;20195;-86
2023/08/02 02:17:04;;;;;;;9.15;3.33;;;18.90;99.90;;;;;;5092388;28;20284;-88
2023/08/02 02:19:35;;;;;;;13.05;3.92;;;19.00;99.90;;;;;;5092357;28;20278;-85
2023/08/02 02:22:08;;;;;;;14.90;3.58;;;19.20;99.90;;;;;;5078242;28;20192;-83
2023/08/02 02:24:40;;;;;;;10.65;3.40;;;19.20;99.90;;;;;;5076732;28;20226;-87
2023/08/02 02:27:11;;;;;;;10.48;2.90;;;19.30;99.90;;;;;;5087521;28;20710;-87
2023/08/02 02:29:42;;;;;;;12.05;3.40;;;19.30;99.90;;;;;;5113310;28;20199;-87
2023/08/02 02:32:13;;;;;;;11.20;3.22;;;19.30;99.90;;;;;;5108258;28;20201;-86
2023/08/02 02:34:43;;;;;;;13.38;3.60;;;19.40;99.90;;;;;;5092495;28;20199;-86
2023/08/02 02:37:16;;;;;;;12.13;3.45;;;19.40;99.90;;;;;;5073446;28;20232;-80
2023/08/02 02:39:47;;;;;;;9.15;3.28;;;19.40;99.90;;;;;;5077667;28;20199;-86
2023/08/02 02:42:17;;;;;;;9.35;3.00;;;19.40;99.90;;;;;;5070885;28;20212;-87
2023/08/02 02:44:48;;;;;;;7.57;3.15;;;19.40;99.90;;;;;;5073487;28;20593;-86
2023/08/02 02:47:19;;;;;;;13.13;3.40;;;19.40;99.90;;;;;;5072203;28;20203;-87
2023/08/02 02:49:50;;;;;;;10.35;2.92;;;19.40;99.90;;;;;;5071722;28;20196;-86
2023/08/02 02:52:23;;;;;;;10.05;2.90;;;19.50;99.90;;;;;;5085665;28;20624;-87
2023/08/02 02:54:54;;;;;;;10.82;3.60;;;19.50;99.90;;;;;;5072251;28;20204;-87
2023/08/02 02:57:24;;;;;;;8.85;3.05;;;19.50;99.90;;;;;;5071738;28;20323;-86
2023/08/02 02:59:55;;;;;;;8.65;2.75;;;19.40;99.90;;;;;;5072627;28;20574;-86
2023/08/02 03:02:26;;;;;;;8.95;2.90;;;19.40;99.90;;;;;;5075292;28;20655;-85
2023/08/02 03:04:57;;;;;;;11.43;3.60;;;19.50;99.90;;;;;;5085660;28;20254;-85
2023/08/02 03:07:30;;;;;;;11.73;2.90;;;19.70;99.90;;;;;;5073853;28;20215;-87
2023/08/02 03:10:01;;;;;;;13.18;3.42;;;19.70;99.90;;;;;;5073502;28;20204;-85
2023/08/02 03:12:31;;;;;;;12.27;2.92;;;19.80;99.90;;;;;;5071311;28;20570;-85
2023/08/02 03:15:02;;;;;;;9.27;2.33;;;19.80;99.90;;;;;;5071517;28;20200;-86
2023/08/02 03:17:33;;;;;;;13.80;2.95;;;19.70;99.90;;;;;;5087872;28;20299;-83
2023/08/02 03:20:04;;;;;;;10.10;2.83;;;19.70;99.90;;;;;;5093041;28;20209;-85
2023/08/02 03:22:38;;;;;;;12.55;3.13;;;19.70;99.90;;;;;;5090118;28;20249;-86
2023/08/02 03:25:09;;;;;;;12.93;3.25;;;19.70;99.90;;;;;;5091263;28;20191;-86
2023/08/02 03:27:40;;;;;;;13.68;2.88;;;19.80;99.90;;;;;;5080196;28;20243;-86
2023/08/02 03:30:11;;;;;;;10.52;2.72;;;19.70;99.90;;;;;;5072479;28;20198;-87
2023/08/02 03:32:42;;;;;;;9.52;2.40;;;19.60;99.90;;;;;;5072486;28;20682;-85
2023/08/02 03:35:15;;;;;;;10.80;2.30;;;19.60;99.90;;;;;;5071093;28;20223;-84
2023/08/02 03:37:48;;;;;;;8.32;2.00;;;19.60;99.90;;;;;;5070045;28;20223;-85
2023/08/02 03:40:19;;;;;;;8.40;2.40;;;19.50;99.90;;;;;;5085757;28;20568;-84
2023/08/02 03:42:50;;;;;;;8.77;1.98;;;19.60;99.90;;;;;;5071637;28;20226;-84
2023/08/02 03:45:21;;;;;;;9.23;2.33;;;19.70;99.90;;;;;;5073365;28;20208;-85
2023/08/02 03:47:51;;;;;;;13.13;2.15;;;19.80;99.90;;;;;;5070647;28;20200;-85
2023/08/02 03:50:25;;;;;;;9.82;2.03;;;19.80;99.90;;;;;;5069399;28;20192;-83
2023/08/02 03:52:58;;;;;;;11.23;2.33;;;19.90;99.90;;;;;;5083478;28;20242;-85
2023/08/02 03:55:29;;;;;;;8.90;1.92;;;20.00;99.90;;;;;;5094167;28;20218;-85
2023/08/02 03:58:00;;;;;;;10.40;2.22;;;19.90;99.90;;;;;;5085862;28;20200;-85
2023/08/02 04:00:30;;;;;;;12.02;2.10;;;19.90;99.90;;;;;;5079151;28;20196;-85
2023/08/02 04:03:02;;;;;;;10.60;2.00;;;19.80;99.90;;;;;;5092460;28;20264;-84
2023/08/02 04:05:32;;;;;;;8.27;2.13;;;19.90;99.90;;;;;;5094997;28;20202;-86
2023/08/02 04:08:05;;;;;;;7.07;1.90;;;19.80;99.90;;;;;;5094659;28;20210;-85
2023/08/02 04:10:39;;;;;;;11.52;2.40;;;19.70;99.90;;;;;;5095166;28;20563;-86
2023/08/02 04:13:10;;;;;;;7.18;2.03;;;19.70;99.90;;;;;;5094740;28;20221;-87
2023/08/02 04:15:41;;;;;;;7.72;1.90;;;19.70;99.90;;;;;;5094977;28;20187;-87
2023/08/02 04:18:12;;;;;;;5.38;1.60;;;19.60;99.90;;;;;;5090395;28;20665;-85
2023/08/02 04:20:45;;;;;;;8.07;1.90;;;19.60;99.90;;;;;;5094436;28;20203;-85
2023/08/02 04:23:18;;;;;;;8.02;1.83;;;19.60;99.90;;;;;;5086992;28;20202;-85
2023/08/02 04:25:48;;;;;;;5.65;1.45;;;19.50;99.90;;;;;;5091001;28;20219;-85
2023/08/02 04:28:19;;;;;;;9.57;1.88;;;19.50;99.90;;;;;;5094588;28;20238;-86
2023/08/02 04:30:53;;;;;;;6.80;1.85;;;19.40;99.90;;;;;;5075961;28;20199;-85
2023/08/02 04:33:27;;;;;;;11.77;2.28;;;19.30;99.90;;;;;;5092535;28;20206;-85
2023/08/02 04:36:01;;;;;;;6.70;1.88;;;19.20;99.90;;;;;;5080229;28;20213;-85
2023/08/02 04:38:34;;;;;;;8.23;2.13;;;19.20;99.90;;;;;;5085315;28;20230;-85
2023/08/02 04:41:05;;;;;;;9.77;2.10;;;19.00;99.90;;;;;;5094461;28;20186;-87
2023/08/02 04:43:36;;;;;;;11.65;2.15;;;19.00;99.90;;;;;;5080694;28;20204;-86
2023/08/02 04:46:30;;;;;;;8.73;1.92;;;19.10;99.90;;;;;;5099498;28;20187;-86
2023/08/02 04:49:17;;;;;;;9.98;2.50;;;19.10;99.90;;;;;;5106692;28;20202;-85
2023/08/02 04:51:49;;;;;;;9.82;2.28;;;19.10;99.90;;;;;;5116800;28;20230;-82
2023/08/02 04:54:27;;;;;;;7.70;1.70;;;19.10;99.90;;;;;;5091861;28;20502;-86
2023/08/02 04:56:59;;;;;;;9.48;2.20;;;19.00;99.90;;;;;;5091057;28;20261;-86
2023/08/02 04:59:34;;;;;;;10.52;1.95;;;19.00;99.90;;;;;;5090844;28;20258;-86
2023/08/02 05:02:07;;;;;;;10.48;2.40;;;19.00;99.90;;;;;;5088291;28;20665;-87
2023/08/02 05:04:38;;;;;;;9.38;2.13;;;19.00;99.90;;;;;;5093377;28;20223;-86
2023/08/02 05:07:10;;;;;;;8.68;2.50;;;19.00;99.90;;;;;;5095933;28;20213;-87
2023/08/02 05:09:45;;;;;;;9.35;2.08;;;18.90;99.90;;;;;;5084164;28;20204;-87
2023/08/02 05:12:16;;;;;;;10.77;2.53;;;19.00;99.90;;;;;;5086597;28;20209;-87
2023/08/02 05:14:47;;;;;;;8.88;2.17;;;19.10;99.90;;;;;;5097039;28;20196;-86
2023/08/02 05:17:18;;;;;;;8.77;2.00;;;19.10;99.90;;;;;;5103816;28;20218;-86
2023/08/02 05:22:46;;;;;;;10.55;2.40;;;19.10;99.90;;;;;;5091895;28;20203;-87
2023/08/02 05:25:34;;;;;;;11.02;2.38;;;19.10;99.90;;;;;;5090163;28;20200;-88
2023/08/02 05:28:07;;;;;;;9.13;1.92;;;19.10;99.90;;;;;;5097631;28;20207;-87
2023/08/02 05:30:42;;;;;;;12.20;2.35;;;19.10;99.90;;;;;;5101704;28;20219;-87
2023/08/02 05:33:13;;;;;;;11.70;2.55;;;19.10;99.90;;;;;;5104178;28;20191;-86
2023/08/02 05:35:45;;;;;;;12.02;2.25;;;19.00;99.90;;;;;;5099451;28;20212;-88
2023/08/02 05:38:16;;;;;;;9.15;2.13;;;19.00;99.90;;;;;;5078047;28;20227;-88
2023/08/02 05:40:48;;;;;;;8.10;1.88;;;18.90;99.90;;;;;;5074126;28;20210;-87
2023/08/02 05:43:19;;;;;;;10.15;2.30;;;18.80;99.90;;;;;;5081298;28;20286;-86
2023/08/02 05:45:55;;;;;;;12.23;2.20;;;18.80;99.90;;;;;;5094223;28;20199;-88
2023/08/02 05:48:28;;;;;;;9.48;1.83;;;18.70;99.90;;;;;;5086168;28;20199;-87
2023/08/02 05:50:59;;;;;;;8.55;2.45;;;18.70;99.90;;;;;;5073208;28;20279;-86
2023/08/02 05:53:30;;;;;;;8.35;2.13;;;18.70;99.90;;;;;;5073049;28;20207;-86
2023/08/02 05:56:04;;;;;;;10.05;2.35;;;18.60;99.90;;;;;;5073524;28;20204;-89
2023/08/02 05:58:35;;;;;;;6.90;1.80;;;18.60;99.90;;;;;;5073346;28;20196;-87
2023/08/02 06:01:05;;;;;;;13.88;2.60;;;18.60;99.90;;;;;;5073497;28;20214;-88
2023/08/02 06:03:36;;;;;;;8.75;1.90;;;18.70;99.90;;;;;;5073812;28;20299;-89
2023/08/02 06:06:07;;;;;;;9.27;2.10;;;18.70;99.90;;;;;;5079504;28;20203;-88
2023/08/02 06:08:40;;;;;;;12.02;2.67;;;18.70;99.90;;;;;;5073136;28;20206;-87
2023/08/02 06:11:17;;;;;;;11.27;2.50;;;18.70;99.90;;;;;;5100770;28;20213;-86
2023/08/02 06:13:48;;;;;;;12.73;2.33;;;18.70;99.90;;;;;;5092865;28;20286;-88
2023/08/02 06:16:18;;;;;;;8.30;2.30;;;18.60;99.90;;;;;;5083267;28;20626;-88
2023/08/02 06:18:49;;;;;;;14.27;2.30;;;18.50;99.90;;;;;;5073533;28;20643;-88
2023/08/02 06:21:20;;;;;;;8.38;2.35;;;18.50;99.90;;;;;;5072531;28;20196;-87
2023/08/02 06:23:51;;;;;;;8.63;2.33;;;18.50;99.90;;;;;;5072860;28;20202;-88
2023/08/02 06:26:25;;;;;;;8.00;2.13;;;18.60;99.90;;;;;;5072014;28;20231;-88
2023/08/02 06:28:56;;;;;;;12.35;2.55;;;18.60;99.90;;;;;;5072450;28;20208;-87
2023/08/02 06:31:27;;;;;;;7.82;1.70;;;18.70;99.90;;;;;;5074035;28;20210;-88
2023/08/02 06:33:57;;;;;;;10.63;1.95;;;18.70;99.90;;;;;;5079467;28;20222;-88
2023/08/02 06:36:28;;;;;;;13.15;2.35;;;18.80;99.90;;;;;;5076133;28;20646;-88
2023/08/02 06:39:00;;;;;;;12.98;2.78;;;18.80;99.90;;;;;;5073028;28;20673;-87
2023/08/02 06:41:33;;;;;;;10.88;2.38;;;18.90;99.90;;;;;;5074395;28;20203;-87
2023/08/02 06:44:04;;;;;;;10.20;2.28;;;18.80;99.90;;;;;;5076475;28;20184;-87
2023/08/02 06:46:36;;;;;;;9.80;2.33;;;18.80;99.90;;;;;;5091112;28;20654;-88
2023/08/02 06:49:07;;;;;;;15.25;3.10;;;18.80;99.90;;;;;;5095879;28;20227;-88
2023/08/02 06:51:38;;;;;;;12.23;2.67;;;18.80;99.90;;;;;;5081098;28;20212;-88
2023/08/02 06:54:09;;;;;;;7.78;2.28;;;18.70;99.90;;;;;;5090525;28;20194;-88
2023/08/02 06:56:42;;;;;;;11.10;2.55;;;18.60;99.90;;;;;;5099325;28;20195;-88
2023/08/02 06:59:13;;;;;;;10.98;2.38;;;18.60;99.90;;;;;;5085746;28;20200;-89
2023/08/02 07:01:45;;;;;;;10.20;2.67;;;18.50;99.90;;;;;;5077347;28;20393;-88
2023/08/02 07:04:17;;;;;;;12.63;2.45;;;18.50;99.90;;;;;;5093733;28;20227;-89
2023/08/02 07:06:48;;;;;;;8.48;2.20;;;18.40;99.90;;;;;;5097233;28;20287;-88
2023/08/02 07:09:19;;;;;;;10.20;2.03;;;18.30;99.90;;;;;;5095782;28;20203;-89
2023/08/02 07:11:53;;;;;;;11.63;2.53;;;18.30;99.90;;;;;;5078752;28;20237;-89
2023/08/02 07:14:25;;;;;;;9.65;2.53;;;18.20;99.90;;;;;;5083945;28;20278;-88
2023/08/02 07:16:56;;;;;;;13.05;2.35;;;18.20;99.90;;;;;;5097828;28;20318;-87
2023/08/02 07:19:27;;;;;;;11.90;2.38;;;18.10;99.90;;;;;;5093403;28;20229;-88
2023/08/02 07:21:57;;;;;;;12.73;2.65;;;18.10;99.90;;;;;;5093302;28;20290;-89
2023/08/02 07:24:31;;;;;;;10.65;2.42;;;18.10;99.90;;;;;;5098481;28;20206;-89
2023/08/02 07:27:18;;;;;;;11.57;2.53;;;18.10;99.90;;;;;;5092310;28;20634;-87
2023/08/02 07:29:56;;;;;;;9.05;2.13;;;17.90;99.90;;;;;;5087018;28;20246;-87
2023/08/02 07:32:30;;;;;;;10.73;2.70;;;17.90;99.90;;;;;;5075213;28;20206;-88
2023/08/02 07:35:01;;;;;;;12.07;2.35;;;17.90;99.90;;;;;;5085119;28;20195;-88
2023/08/02 07:37:33;;;;;;;10.35;2.45;;;17.90;99.90;;;;;;5072963;28;20216;-88
2023/08/02 07:40:07;;;;;;;11.90;2.85;;;17.80;99.90;;;;;;5087081;28;20557;-88
2023/08/02 07:42:40;;;;;;;11.05;2.92;;;17.80;99.90;;;;;;5082780;28;20257;-88
2023/08/02 07:45:13;;;;;;;12.40;2.60;;;17.80;99.90;;;;;;5072441;28;20291;-88
2023/08/02 07:47:44;;;;;;;10.18;2.42;;;17.70;99.90;;;;;;5071526;28;20195;-87
2023/08/02 07:50:18;;;;;;;11.82;2.80;;;17.70;99.90;;;;;;5071921;28;20187;-87
2023/08/02 07:52:58;;;;;;;9.45;2.42;;;17.60;99.90;;;;;;5071469;28;20648;-86
2023/08/02 07:55:28;;;;;;;10.63;2.20;;;17.60;99.90;;;;;;5071995;28;20630;-87
2023/08/02 07:58:01;;;;;;;10.55;2.63;;;17.60;99.90;;;;;;5090864;28;20233;-88
2023/08/02 08:00:32;;;;;;;11.57;2.65;;;17.60;99.90;;;;;;5090866;28;20203;-88
2023/08/02 08:03:04;;;;;;;12.07;3.15;;;17.60;99.90;;;;;;5092322;28;20229;-88
2023/08/02 08:05:34;;;;;;;9.73;2.95;;;17.60;99.90;;;;;;5091869;28;20206;-88
2023/08/02 08:08:09;;;;;;;15.85;2.58;;;17.60;99.90;;;;;;5094312;28;20199;-89
2023/08/02 08:10:40;;;;;;;11.32;2.55;;;17.50;99.90;;;;;;5090177;28;20194;-88
2023/08/02 08:13:16;;;;;;;15.88;2.85;;;17.50;99.90;;;;;;5072186;28;20208;-87
2023/08/02 08:15:47;;;;;;;12.88;3.00;;;17.50;99.90;;;;;;5076319;28;20206;-87
2023/08/02 08:18:40;;;;;;;14.73;3.38;;;17.50;99.90;;;;;;5092614;28;20249;-88
2023/08/02 08:21:11;;;;;;;16.63;5.53;;;17.50;99.90;;;;;;5091737;28;20290;-88
2023/08/02 08:23:42;;;;;;;9.13;4.05;;;17.40;99.90;;;;;;5092069;28;20200;-87
2023/08/02 08:26:15;;;;;;;11.77;3.13;;;17.40;99.90;;;;;;5092405;28;20215;-88
2023/08/02 08:28:49;;;;;;;10.85;3.13;;;17.40;99.90;;;;;;5080930;28;20295;-87
2023/08/02 08:31:20;;;;;;;9.93;2.97;;;17.40;99.90;;;;;;5071796;28;20278;-87
2023/08/02 08:33:51;;;;;;;11.10;3.53;;;17.40;99.90;;;;;;5075026;28;20339;-88
2023/08/02 08:36:31;;;;;;;16.38;4.47;;;17.30;99.90;;;;;;5071533;28;20207;-88
2023/08/02 08:39:02;;;;;;;15.88;4.43;;;17.30;99.90;;;;;;5080888;28;20689;-87
2023/08/02 08:41:36;;;;;;;13.82;4.43;;;17.30;99.90;;;;;;5096071;28;20192;-88
2023/08/02 08:44:15;;;;;;;26.75;15.75;;;17.20;99.90;;;;;;5083487;28;20211;-86
2023/08/02 08:46:47;;;;;;;22.65;12.45;;;17.20;99.90;;;;;;5085254;28;20196;-87
2023/08/02 08:49:21;;;;;;;23.77;12.55;;;17.10;99.90;;;;;;5084713;28;20207;-87
2023/08/02 08:51:56;;;;;;;19.80;8.15;;;17.20;99.90;;;;;;5100158;28;20199;-87
2023/08/02 08:54:32;;;;;;;14.48;5.85;;;17.10;99.90;;;;;;5102418;28;20195;-88
2023/08/02 08:57:21;;;;;;;13.32;4.82;;;17.10;99.90;;;;;;5102361;28;20620;-90
2023/08/02 08:59:55;;;;;;;13.15;5.65;;;17.20;99.90;;;;;;5080958;28;20663;-91
2023/08/02 09:02:27;;;;;;;18.17;7.40;;;17.10;99.90;;;;;;5085058;28;20195;-89
2023/08/02 09:04:58;;;;;;;18.30;12.20;;;17.10;99.90;;;;;;5101813;28;20895;-88
2023/08/02 09:07:28;;;;;;;19.13;12.27;;;17.10;99.90;;;;;;5097974;28;20199;-86
2023/08/02 09:09:59;;;;;;;16.90;9.57;;;17.10;99.90;;;;;;5096427;28;20205;-87
2023/08/02 09:12:34;;;;;;;11.80;6.57;;;17.00;99.90;;;;;;5081053;28;20207;-86
2023/08/02 09:15:08;;;;;;;13.18;5.82;;;17.00;99.90;;;;;;5079280;28;20560;-86
2023/08/02 09:17:49;;;;;;;14.18;6.65;;;17.00;99.90;;;;;;5083038;28;20218;-87
2023/08/02 09:20:21;;;;;;;14.63;6.88;;;17.00;99.90;;;;;;5074132;28;20207;-85
2023/08/02 09:22:52;;;;;;;11.75;5.32;;;17.00;99.90;;;;;;5094798;28;20191;-89
2023/08/02 09:25:28;;;;;;;11.20;6.07;;;17.00;99.90;;;;;;5089243;28;20206;-87
2023/08/02 09:28:00;;;;;;;12.98;6.13;;;17.00;99.90;;;;;;5093540;28;20212;-85
2023/08/02 09:30:34;;;;;;;12.85;5.40;;;17.00;99.90;;;;;;5097899;28;20202;-87
2023/08/02 09:33:07;;;;;;;10.70;5.45;;;16.90;99.90;;;;;;5118313;28;20199;-88
2023/08/02 09:35:52;;;;;;;11.88;5.10;;;16.90;99.90;;;;;;5103139;28;20203;-87
2023/08/02 09:38:23;;;;;;;14.15;4.25;;;16.90;99.90;;;;;;5094702;28;20215;-88
2023/08/02 09:40:54;;;;;;;9.75;3.35;;;16.90;99.90;;;;;;5096436;28;20293;-87
2023/08/02 09:43:25;;;;;;;11.57;3.42;;;16.90;99.90;;;;;;5095083;28;20650;-87
2023/08/02 09:46:00;;;;;;;9.93;4.40;;;16.90;99.90;;;;;;5093031;28;20577;-83
2023/08/02 09:48:41;;;;;;;10.25;4.38;;;16.80;99.90;;;;;;5093522;28;20203;-82
2023/08/02 09:51:14;;;;;;;10.88;5.43;;;16.90;99.90;;;;;;5091684;28;20606;-84
2023/08/02 09:53:55;;;;;;;13.30;5.78;;;16.80;99.90;;;;;;5089823;28;20582;-86
2023/08/02 09:56:28;;;;;;;12.00;3.97;;;16.80;99.90;;;;;;5085207;28;20191;-87
2023/08/02 09:59:00;;;;;;;9.13;3.58;;;16.80;99.90;;;;;;5096346;28;20211;-87
2023/08/02 10:01:36;;;;;;;11.52;4.10;;;16.70;99.90;;;;;;5098374;28;20199;-87
2023/08/02 10:04:08;;;;;;;9.98;4.07;;;16.80;99.90;;;;;;5095003;28;20254;-87
2023/08/02 10:07:33;;;;;;;11.77;4.10;;;16.80;99.90;;;;;;5074997;28;20204;-86
2023/08/02 10:10:08;;;;;;;12.13;3.88;;;16.70;99.90;;;;;;5014106;28;20273;-86
2023/08/02 10:12:46;;;;;;;12.63;4.05;;;16.80;99.90;;;;;;5087412;28;20197;-84
2023/08/02 10:15:29;;;;;;;10.38;3.70;;;16.70;99.90;;;;;;5081597;28;20661;-87
2023/08/02 10:18:30;;;;;;;11.30;3.88;;;16.60;99.90;;;;;;5171476;27;20514;-86
2023/08/02 10:21:11;;;;;;;9.27;4.18;;;16.60;99.90;;;;;;5163451;27;20203;-87
2023/08/02 10:26:58;;;;;;;11.88;4.43;;;16.60;99.90;;;;;;5140045;27;20209;-87
2023/08/02 10:29:36;;;;;;;10.15;3.90;;;16.60;99.90;;;;;;5166299;27;20193;-87
2023/08/02 10:32:21;;;;;;;10.88;4.60;;;16.60;99.90;;;;;;5155089;27;20204;-87
2023/08/02 10:34:56;;;;;;;11.48;3.75;;;16.60;99.90;;;;;;5153317;27;20200;-87
2023/08/02 10:37:59;;;;;;;12.75;4.03;;;16.60;99.90;;;;;;5172047;27;20257;-86
2023/08/02 10:41:07;;;;;;;10.13;3.03;;;16.60;99.90;;;;;;5173448;27;20227;-86
2023/08/02 10:44:06;;;;;;;9.23;3.03;;;16.60;99.90;;;;;;5174835;27;20193;-87
2023/08/02 10:46:43;;;;;;;12.98;3.70;;;16.60;99.90;;;;;;5174677;27;20195;-85
2023/08/02 10:49:44;;;;;;;10.18;3.58;;;16.60;99.90;;;;;;5168002;27;20200;-86
2023/08/02 10:52:33;;;;;;;11.95;4.15;;;16.50;99.90;;;;;;5161630;27;20188;-86
2023/08/02 10:55:13;;;;;;;13.77;5.28;;;16.50;99.90;;;;;;5161956;27;20284;-87
2023/08/02 10:58:17;;;;;;;13.38;5.32;;;16.50;99.90;;;;;;5154908;27;20579;-84
2023/08/02 11:01:18;;;;;;;9.80;4.65;;;16.50;99.90;;;;;;5145390;27;20190;-85
2023/08/02 11:04:03;;;;;;;11.57;4.97;;;16.50;99.90;;;;;;5151888;27;20225;-87
2023/08/02 11:06:41;;;;;;;11.27;4.72;;;16.40;99.90;;;;;;5162372;27;20576;-87
2023/08/02 11:09:17;;;;;;;14.80;4.65;;;16.40;99.90;;;;;;5172833;27;20188;-88
2023/08/02 11:11:52;;;;;;;9.50;4.13;;;16.40;99.90;;;;;;5178717;27;20192;-86
2023/08/02 11:14:34;;;;;;;12.80;4.10;;;16.40;99.90;;;;;;5159388;27;20192;-84
2023/08/02 11:17:09;;;;;;;8.38;3.10;;;16.40;99.90;;;;;;5151496;27;20229;-87
2023/08/02 11:19:50;;;;;;;9.52;3.22;;;16.30;99.90;;;;;;5159955;27;20197;-86
2023/08/02 11:35:06;;;;;;;8.20;2.80;;;16.30;99.90;;;;;;5130308;27;20230;-88
2023/08/02 11:38:01;;;;;;;9.32;2.35;;;16.30;99.90;;;;;;5124500;27;20257;-89
2023/08/02 11:44:06;;;;;;;8.98;3.10;;;16.30;99.90;;;;;;5144211;27;20277;-88
2023/08/02 11:46:55;;;;;;;6.00;2.22;;;16.30;99.90;;;;;;5143500;27;20206;-88
2023/08/02 11:52:29;;;;;;;8.32;2.60;;;16.30;99.90;;;;;;5143043;27;20194;-89
2023/08/02 11:55:13;;;;;;;8.55;2.70;;;16.30;99.90;;;;;;5145435;27;20194;-90
2023/08/02 11:57:48;;;;;;;8.10;2.75;;;16.30;99.90;;;;;;5148175;27;20298;-90
2023/08/02 12:00:40;;;;;;;10.32;2.90;;;16.30;99.90;;;;;;5152746;27;20204;-90
2023/08/02 12:06:21;;;;;;;11.40;3.42;;;16.30;99.90;;;;;;5148287;27;20198;-91
2023/08/02 12:09:19;;;;;;;10.85;2.78;;;16.20;99.90;;;;;;5147057;27;20198;-90
2023/08/02 12:12:03;;;;;;;14.05;3.15;;;16.20;99.90;;;;;;5145911;27;20202;-89
2023/08/02 12:14:38;;;;;;;10.50;3.65;;;16.20;99.90;;;;;;5146001;27;20314;-90
2023/08/02 12:17:26;;;;;;;10.93;3.10;;;16.10;99.90;;;;;;5156993;27;20229;-90
2023/08/02 12:19:59;;;;;;;7.88;2.75;;;16.10;99.90;;;;;;5152203;27;20246;-87
2023/08/02 12:22:38;;;;;;;11.65;2.67;;;16.10;99.90;;;;;;5160454;27;20597;-90
2023/08/02 12:25:12;;;;;;;10.23;3.30;;;16.10;99.90;;;;;;5153034;27;20271;-87
2023/08/02 12:27:46;;;;;;;11.38;3.20;;;16.10;99.90;;;;;;5151736;27;20220;-88
2023/08/02 12:30:19;;;;;;;11.32;3.53;;;16.00;99.90;;;;;;5159661;27;20197;-88
2023/08/02 12:33:01;;;;;;;12.75;3.35;;;16.00;99.90;;;;;;5153625;27;20190;-89
2023/08/02 12:35:34;;;;;;;11.80;3.22;;;16.00;99.90;;;;;;5142282;27;20686;-88
2023/08/02 12:38:08;;;;;;;7.70;3.00;;;16.00;99.90;;;;;;5157718;27;20217;-89
2023/08/02 12:40:43;;;;;;;11.57;3.03;;;15.90;99.90;;;;;;5163013;27;20193;-89
2023/08/02 12:43:15;;;;;;;10.60;3.65;;;15.90;99.90;;;;;;5147378;27;20201;-91
2023/08/02 12:46:04;;;;;;;10.02;3.00;;;15.90;99.90;;;;;;5153204;27;20257;-89
2023/08/02 12:49:13;;;;;;;11.65;3.13;;;15.90;99.90;;;;;;5153082;27;20201;-88
2023/08/02 12:51:47;;;;;;;7.20;2.70;;;15.80;99.90;;;;;;5149167;27;20687;-89
2023/08/02 12:54:25;;;;;;;12.45;3.42;;;15.90;99.90;;;;;;5148931;27;20551;-90
2023/08/02 12:56:58;;;;;;;10.90;3.38;;;15.80;99.90;;;;;;5153332;27;20217;-89
2023/08/02 13:02:19;;;;;;;11.48;3.55;;;15.80;99.90;;;;;;5157609;27;20197;-89
2023/08/02 13:04:58;;;;;;;7.97;3.40;;;15.80;99.90;;;;;;5146280;27;20199;-90
2023/08/02 13:07:43;;;;;;;8.75;3.63;;;15.80;99.90;;;;;;5148582;27;20215;-90
2023/08/02 13:10:20;;;;;;;10.77;3.38;;;15.80;99.90;;;;;;5144668;27;20193;-91
2023/08/02 13:12:58;;;;;;;10.25;3.80;;;15.70;99.90;;;;;;5152768;27;20193;-90
2023/08/02 13:15:36;;;;;;;12.40;3.80;;;15.70;99.90;;;;;;5165922;27;20198;-91
2023/08/02 13:18:15;;;;;;;9.88;3.65;;;15.60;99.90;;;;;;5126065;27;20266;-90
2023/08/02 13:20:56;;;;;;;9.95;3.60;;;15.60;99.90;;;;;;5144177;27;20294;-92
2023/08/02 13:23:31;;;;;;;9.50;3.53;;;15.60;99.90;;;;;;5143150;27;20201;-92
2023/08/02 13:26:21;;;;;;;10.95;4.35;;;15.50;99.90;;;;;;5115176;27;20190;-91
2023/08/02 13:28:57;;;;;;;10.30;3.42;;;15.50;99.90;;;;;;5126125;27;20204;-91
2023/08/02 13:31:33;;;;;;;8.63;3.47;;;15.50;99.90;;;;;;5145059;27;20648;-88
2023/08/02 13:34:07;;;;;;;10.02;3.47;;;15.40;99.90;;;;;;5141040;27;20185;-90
2023/08/02 13:36:49;;;;;;;11.00;3.50;;;15.40;99.90;;;;;;5144017;27;20576;-88
2023/08/02 13:39:22;;;;;;;10.13;3.53;;;15.40;99.90;;;;;;5151083;27;20193;-90
2023/08/02 13:41:54;;;;;;;11.07;3.58;;;15.30;99.90;;;;;;5159513;27;20212;-89
2023/08/02 13:44:25;;;;;;;9.30;3.72;;;15.40;99.90;;;;;;5150560;27;20202;-88
2023/08/02 13:46:56;;;;;;;10.30;3.95;;;15.30;99.90;;;;;;5145728;27;20570;-88